createdAt,value
2022-08-12T00:07:17.672Z,58.73
2022-08-12T00:17:17.516Z,58.12
2022-08-12T00:27:17.921Z,57.52
2022-08-12T00:37:17.990Z,60.83
2022-08-12T00:47:24.964Z,62.49
2022-08-12T00:57:19.176Z,64.11
2022-08-12T01:07:18.343Z,65.25
2022-08-12T01:17:18.510Z,65.48
2022-08-12T01:27:18.684Z,64.04
2022-08-12T01:37:18.881Z,65.99
2022-08-12T01:47:19.086Z,65.01
2022-08-12T01:57:59.209Z,67.39
2022-08-12T02:07:20.439Z,70.62
2022-08-12T02:17:19.753Z,70.39
2022-08-12T02:27:20.826Z,71.03
2022-08-12T02:37:20.313Z,72.78
2022-08-12T02:47:59.204Z,73.83
2022-08-12T02:57:21.269Z,74.48
2022-08-12T03:07:20.446Z,72.92
2022-08-12T03:17:20.615Z,74.07
2022-08-12T03:27:20.795Z,73.46
2022-08-12T03:37:20.983Z,73.16
2022-08-12T03:47:21.148Z,72.72
2022-08-12T03:57:21.334Z,75.86
2022-08-12T04:07:21.499Z,75.25
2022-08-12T04:17:21.661Z,77.99
2022-08-12T04:27:21.839Z,74.41
2022-08-12T04:37:22.022Z,74.17
2022-08-12T04:47:22.188Z,73.36
2022-08-12T04:57:22.664Z,75.38
2022-08-12T05:07:22.510Z,76.60
2022-08-12T05:17:22.707Z,76.60
2022-08-12T05:27:23.887Z,77.03
2022-08-12T05:37:23.065Z,74.37
2022-08-12T05:47:23.225Z,74.16
2022-08-12T05:57:24.642Z,77.10
2022-08-12T06:07:48.687Z,75.31
2022-08-12T06:17:24.769Z,72.92
2022-08-12T06:27:23.953Z,69.15
2022-08-12T06:37:25.363Z,68.61
2022-08-12T06:47:24.357Z,66.56
2022-08-12T06:58:04.436Z,62.15
2022-08-12T07:07:25.687Z,56.48
2022-08-12T07:17:25.021Z,54.10
2022-08-12T07:27:24.998Z,53.74
2022-08-12T07:37:25.189Z,52.42
2022-08-12T07:47:25.348Z,51.47
2022-08-12T07:57:25.525Z,51.25
2022-08-12T08:07:25.797Z,52.94
2022-08-12T08:17:25.844Z,49.90
2022-08-12T08:27:26.029Z,51.25
2022-08-12T08:37:31.082Z,48.91
2022-08-12T08:47:27.405Z,46.99
2022-08-12T08:57:26.580Z,44.76
2022-08-12T09:07:51.086Z,43.24
2022-08-12T09:17:42.795Z,39.87
2022-08-12T09:27:57.854Z,35.91
2022-08-12T09:37:28.611Z,33.29
2022-08-12T09:47:29.287Z,32.67
2022-08-12T09:58:45.629Z,34.38
2022-08-12T10:07:40.119Z,32.59
2022-08-12T10:17:29.145Z,33.91
2022-08-12T10:27:38.949Z,32.56
2022-08-12T10:38:35.824Z,32.40
2022-08-12T10:48:07.303Z,34.05
2022-08-12T10:58:13.331Z,35.36
2022-08-12T11:08:33.822Z,34.47
2022-08-12T11:17:43.168Z,32.51
2022-08-12T11:27:30.851Z,35.86
2022-08-12T11:37:29.777Z,38.09
2022-08-12T11:47:30.966Z,38.40
2022-08-12T11:59:14.613Z,36.88
2022-08-12T12:08:36.040Z,36.21
2022-08-12T12:17:38.145Z,35.09
2022-08-12T12:27:37.583Z,37.58
2022-08-12T12:38:05.270Z,38.15
2022-08-12T12:47:32.039Z,37.51
2022-08-12T12:57:58.999Z,36.39
2022-08-12T13:07:54.543Z,38.16
2022-08-12T13:18:01.942Z,31.10
2022-08-12T13:27:35.005Z,33.25
2022-08-12T13:37:43.683Z,30.10
2022-08-12T13:47:33.193Z,30.22
2022-08-12T13:57:33.411Z,29.62
2022-08-12T14:07:48.653Z,29.02
2022-08-12T14:17:33.848Z,29.30
2022-08-12T14:28:04.804Z,34.76
2022-08-12T14:37:57.063Z,36.05
2022-08-12T14:47:35.467Z,31.36
2022-08-12T14:57:35.422Z,28.36
2022-08-12T15:07:50.102Z,28.01
2022-08-12T15:17:38.151Z,34.72
2022-08-12T15:28:04.599Z,33.89
2022-08-12T15:38:09.322Z,30.70
2022-08-12T15:47:48.161Z,26.89
2022-08-12T15:57:35.943Z,28.79
2022-08-12T16:07:37.050Z,25.27
2022-08-12T16:18:18.147Z,25.98
2022-08-12T16:27:38.676Z,24.41
2022-08-12T16:38:28.342Z,32.10
2022-08-12T16:47:58.150Z,25.21
2022-08-12T16:57:36.988Z,27.84
2022-08-12T17:07:43.327Z,29.74
2022-08-12T17:17:39.173Z,30.75
2022-08-12T17:27:36.828Z,31.30
2022-08-12T17:37:37.046Z,32.90
2022-08-12T17:47:36.991Z,35.09
2022-08-12T17:57:41.786Z,34.06
2022-08-12T18:07:37.352Z,35.37
2022-08-12T18:17:39.485Z,38.64
2022-08-12T18:27:44.074Z,41.17
2022-08-12T18:37:42.273Z,40.60
2022-08-12T18:47:46.904Z,40.72
2022-08-12T18:58:06.222Z,45.17
2022-08-12T19:07:49.929Z,44.09
2022-08-12T19:17:47.542Z,45.61
2022-08-12T19:27:50.621Z,45.43
2022-08-12T19:38:03.899Z,46.05
2022-08-12T19:47:39.963Z,48.14
2022-08-12T19:57:42.452Z,51.99
2022-08-12T20:07:43.957Z,48.26
2022-08-12T20:17:50.647Z,47.14
2022-08-12T20:28:04.448Z,48.57
2022-08-12T20:38:06.494Z,48.28
2022-08-12T20:47:41.941Z,50.44
2022-08-12T20:58:02.463Z,51.99
2022-08-12T21:07:47.821Z,53.12
2022-08-12T21:18:08.216Z,53.34
2022-08-12T21:27:57.885Z,53.25
2022-08-12T21:37:42.061Z,61.04
2022-08-12T21:47:41.162Z,58.51
2022-08-12T21:57:50.931Z,59.42
2022-08-12T22:07:52.866Z,56.31
2022-08-12T22:17:50.171Z,57.95
2022-08-12T22:27:42.949Z,59.95
2022-08-12T22:37:42.123Z,62.19
2022-08-12T22:47:55.420Z,63.03
2022-08-12T22:57:49.071Z,62.93
2022-08-12T23:07:52.920Z,67.02
2022-08-12T23:17:45.990Z,66.55
2022-08-12T23:27:51.329Z,67.69
2022-08-12T23:37:46.978Z,67.26
2022-08-12T23:47:44.345Z,67.80
2022-08-12T23:58:17.506Z,67.86
